createdAt,value
2018-01-28T00:01:00.546Z,98.28
2018-01-28T00:03:28.893Z,98.23
2018-01-28T00:05:58.016Z,98.36
2018-01-28T00:08:26.740Z,98.44
2018-01-28T00:10:55.052Z,98.30
2018-01-28T00:13:23.363Z,98.21
2018-01-28T00:15:51.739Z,97.67
2018-01-28T00:18:20.060Z,97.18
2018-01-28T00:20:48.619Z,96.88
2018-01-28T00:23:17.009Z,96.46
2018-01-28T00:25:45.327Z,96.10
2018-01-28T00:28:13.639Z,96.07
2018-01-28T00:30:42.802Z,95.94
2018-01-28T00:33:11.308Z,95.82
2018-01-28T00:35:39.664Z,96.45
2018-01-28T00:38:08.810Z,96.63
2018-01-28T00:40:37.129Z,96.44
2018-01-28T00:43:06.229Z,96.09
2018-01-28T00:45:35.335Z,95.99
2018-01-28T00:48:04.428Z,95.79
2018-01-28T00:50:33.510Z,95.76
2018-01-28T00:53:02.919Z,95.80
2018-01-28T00:55:31.244Z,95.71
2018-01-28T00:57:59.571Z,95.60
2018-01-28T01:00:27.939Z,95.75
2018-01-28T01:02:56.256Z,95.59
2018-01-28T01:05:24.592Z,95.80
2018-01-28T01:07:53.703Z,95.99
2018-01-28T01:10:22.023Z,96.27
2018-01-28T01:12:50.387Z,96.44
2018-01-28T01:15:18.701Z,96.32
2018-01-28T01:17:47.119Z,96.48
2018-01-28T01:20:15.772Z,96.57
2018-01-28T01:22:44.268Z,96.53
2018-01-28T01:25:12.649Z,96.46
2018-01-28T01:27:41.776Z,96.68
2018-01-28T01:30:10.097Z,96.62
2018-01-28T01:32:38.429Z,96.40
2018-01-28T01:35:06.782Z,96.14
2018-01-28T01:37:35.868Z,95.99
2018-01-28T01:40:04.175Z,95.96
2018-01-28T01:42:33.347Z,96.46
2018-01-28T01:45:01.654Z,96.64
2018-01-28T01:47:30.067Z,96.69
2018-01-28T01:49:58.413Z,96.39
2018-01-28T01:52:26.736Z,96.22
2018-01-28T01:54:55.263Z,95.91
2018-01-28T01:57:23.570Z,95.63
2018-01-28T01:59:51.916Z,96.09
2018-01-28T02:02:20.273Z,96.34
2018-01-28T02:04:51.418Z,96.37
2018-01-28T02:07:19.728Z,96.28
2018-01-28T02:09:48.084Z,96.15
2018-01-28T02:12:16.412Z,96.34
2018-01-28T02:14:44.731Z,96.31
2018-01-28T02:17:13.079Z,96.33
2018-01-28T02:19:42.052Z,96.38
2018-01-28T02:22:10.374Z,96.21
2018-01-28T02:24:38.722Z,95.71
2018-01-28T02:27:07.052Z,95.61
2018-01-28T02:29:35.386Z,95.91
2018-01-28T02:32:04.347Z,95.97
2018-01-28T02:34:33.118Z,96.31
2018-01-28T02:37:02.248Z,96.18
2018-01-28T02:39:30.673Z,96.12
2018-01-28T02:41:58.992Z,96.01
2018-01-28T02:44:27.751Z,96.26
2018-01-28T02:46:56.827Z,96.35
2018-01-28T02:49:26.240Z,96.33
2018-01-28T02:51:54.553Z,96.45
2018-01-28T02:54:22.900Z,96.76
2018-01-28T02:56:51.988Z,96.98
2018-01-28T02:59:20.336Z,97.12
2018-01-28T03:01:48.651Z,97.41
2018-01-28T03:04:17.224Z,97.60
2018-01-28T03:06:45.308Z,97.62
2018-01-28T03:09:14.396Z,97.61
2018-01-28T03:11:43.870Z,97.59
2018-01-28T03:14:12.183Z,97.60
2018-01-28T03:16:41.255Z,97.76
2018-01-28T03:19:09.904Z,97.80
2018-01-28T03:21:38.218Z,97.69
2018-01-28T03:24:06.523Z,97.60
2018-01-28T03:26:36.103Z,97.92
2018-01-28T03:29:04.416Z,98.22
2018-01-28T03:31:32.744Z,98.29
2018-01-28T03:34:01.756Z,98.26
2018-01-28T03:36:30.063Z,98.21
2018-01-28T03:38:58.383Z,98.10
2018-01-28T03:41:26.744Z,97.88
2018-01-28T03:43:55.055Z,97.70
2018-01-28T03:46:23.367Z,97.61
2018-01-28T03:48:51.706Z,97.47
2018-01-28T03:51:20.680Z,97.24
2018-01-28T03:53:49.030Z,97.42
2018-01-28T03:56:18.598Z,97.33
2018-01-28T03:58:47.651Z,97.24
2018-01-28T04:01:16.089Z,97.13
2018-01-28T04:03:45.708Z,97.37
2018-01-28T04:06:14.778Z,97.37
2018-01-28T04:08:43.100Z,97.32
2018-01-28T04:11:11.560Z,97.32
2018-01-28T04:13:39.874Z,97.26
2018-01-28T04:16:08.207Z,97.15
2018-01-28T04:18:36.607Z,97.10
2018-01-28T04:21:04.933Z,96.99
2018-01-28T04:23:33.263Z,96.87
2018-01-28T04:26:01.928Z,96.76
2018-01-28T04:28:30.512Z,96.77
2018-01-28T04:30:58.826Z,96.73
2018-01-28T04:33:27.184Z,96.73
2018-01-28T04:35:55.488Z,96.58
2018-01-28T04:38:23.796Z,96.32
2018-01-28T04:40:52.165Z,96.59
2018-01-28T04:43:20.493Z,96.81
2018-01-28T04:45:48.796Z,96.97
2018-01-28T04:48:18.240Z,96.95
2018-01-28T04:50:46.747Z,96.85
2018-01-28T04:53:15.059Z,96.69
2018-01-28T04:55:43.687Z,96.64
2018-01-28T04:58:11.996Z,96.55
2018-01-28T05:00:40.663Z,96.28
2018-01-28T05:03:09.348Z,96.15
2018-01-28T05:05:37.679Z,96.04
2018-01-28T05:08:05.983Z,95.89
2018-01-28T05:10:34.615Z,95.88
2018-01-28T05:13:02.931Z,95.70
2018-01-28T05:15:31.987Z,95.64
2018-01-28T05:18:00.346Z,94.62
2018-01-28T05:20:29.416Z,95.11
2018-01-28T05:22:57.716Z,94.83
2018-01-28T05:25:27.392Z,94.59
2018-01-28T05:27:55.700Z,94.22
2018-01-28T05:30:23.996Z,93.71
2018-01-28T05:32:52.349Z,93.54
2018-01-28T05:35:20.947Z,92.71
2018-01-28T05:37:49.732Z,92.90
2018-01-28T05:40:18.076Z,92.86
2018-01-28T05:42:47.195Z,92.35
2018-01-28T05:45:16.296Z,92.13
2018-01-28T05:47:45.380Z,91.18
2018-01-28T05:50:15.563Z,91.85
2018-01-28T05:52:43.980Z,92.07
2018-01-28T05:55:12.300Z,91.52
2018-01-28T05:57:40.661Z,92.14
2018-01-28T06:00:08.989Z,92.60
2018-01-28T06:02:37.299Z,91.54
2018-01-28T06:05:05.648Z,91.08
2018-01-28T06:07:33.967Z,90.02
2018-01-28T06:10:02.289Z,90.39
2018-01-28T06:12:30.640Z,89.41
2018-01-28T06:14:58.953Z,90.50
2018-01-28T06:17:27.255Z,90.74
2018-01-28T06:19:57.474Z,90.62
2018-01-28T06:22:25.970Z,88.43
2018-01-28T06:24:55.048Z,87.81
2018-01-28T06:27:23.499Z,88.39
2018-01-28T06:29:51.810Z,88.83
2018-01-28T06:32:20.127Z,88.51
2018-01-28T06:34:48.881Z,88.40
2018-01-28T06:37:17.224Z,89.33
2018-01-28T06:39:45.536Z,89.46
2018-01-28T06:42:14.551Z,89.72
2018-01-28T06:44:43.443Z,88.34
2018-01-28T06:47:11.751Z,86.94
2018-01-28T06:49:40.154Z,87.11
2018-01-28T06:52:08.595Z,85.50
2018-01-28T06:54:36.892Z,87.74
2018-01-28T06:57:05.264Z,87.09
2018-01-28T06:59:33.560Z,88.26
2018-01-28T07:02:01.865Z,85.68
2018-01-28T07:04:30.648Z,87.32
2018-01-28T07:06:58.950Z,86.39
2018-01-28T07:09:27.264Z,85.18
2018-01-28T07:11:55.873Z,84.28
2018-01-28T07:14:24.239Z,84.06
2018-01-28T07:16:52.659Z,83.40
2018-01-28T07:19:21.079Z,82.50
2018-01-28T07:21:49.388Z,81.91
2018-01-28T07:24:17.779Z,82.06
2018-01-28T07:26:46.128Z,83.09
2018-01-28T07:29:14.432Z,81.49
2018-01-28T07:31:43.158Z,82.11
2018-01-28T07:34:11.984Z,81.75
2018-01-28T07:36:40.296Z,80.38
2018-01-28T07:39:10.727Z,80.33
2018-01-28T07:41:39.296Z,79.45
2018-01-28T07:44:08.003Z,79.47
2018-01-28T07:46:36.303Z,78.64
2018-01-28T07:49:06.232Z,79.54
2018-01-28T07:51:34.564Z,79.02
2018-01-28T07:54:02.951Z,76.99
2018-01-28T07:56:31.284Z,77.83
2018-01-28T07:58:59.588Z,77.38
2018-01-28T08:01:27.903Z,77.55
2018-01-28T08:03:57.642Z,76.39
2018-01-28T08:06:27.467Z,75.78
2018-01-28T08:08:59.166Z,76.56
2018-01-28T08:11:43.104Z,75.90
2018-01-28T08:14:28.119Z,75.80
2018-01-28T08:16:56.428Z,75.47
2018-01-28T08:19:25.458Z,74.33
2018-01-28T08:21:53.823Z,75.30
2018-01-28T08:24:22.128Z,75.36
2018-01-28T08:40:16.737Z,72.54
2018-01-28T08:42:45.043Z,73.30
2018-01-28T08:45:13.347Z,71.33
2018-01-28T08:47:41.464Z,71.15
2018-01-28T08:50:09.767Z,70.82
2018-01-28T08:52:38.072Z,69.28
2018-01-28T08:55:06.411Z,69.66
2018-01-28T08:57:34.724Z,68.71
2018-01-28T09:00:03.867Z,68.37
2018-01-28T09:02:32.491Z,67.87
2018-01-28T09:05:00.791Z,67.39
2018-01-28T09:07:29.140Z,67.21
2018-01-28T09:09:58.268Z,67.19
2018-01-28T09:12:26.623Z,67.26
2018-01-28T09:14:55.143Z,67.07
2018-01-28T09:17:23.521Z,68.53
2018-01-28T09:19:53.094Z,67.56
2018-01-28T09:22:21.399Z,68.50
2018-01-28T09:24:49.773Z,67.81
2018-01-28T09:27:18.090Z,68.50
2018-01-28T09:29:46.391Z,68.63
2018-01-28T09:32:15.444Z,67.26
2018-01-28T09:34:43.744Z,66.18
2018-01-28T09:37:12.061Z,65.28
2018-01-28T09:39:40.567Z,65.10
2018-01-28T09:42:08.888Z,65.19
2018-01-28T09:44:37.211Z,65.32
2018-01-28T09:47:06.495Z,64.99
2018-01-28T09:49:34.968Z,64.65
2018-01-28T09:52:03.288Z,64.22
2018-01-28T09:54:31.632Z,64.86
2018-01-28T09:56:59.931Z,65.23
2018-01-28T09:59:28.907Z,65.51
2018-01-28T10:01:58.030Z,64.35
2018-01-28T10:04:26.342Z,63.66
2018-01-28T10:06:54.647Z,63.46
2018-01-28T10:09:24.369Z,61.89
2018-01-28T10:11:53.783Z,62.34
2018-01-28T10:14:22.906Z,61.70
2018-01-28T10:16:51.215Z,62.03
2018-01-28T10:19:20.139Z,60.84
2018-01-28T10:21:49.008Z,62.01
2018-01-28T10:24:18.016Z,61.51
2018-01-28T10:26:47.214Z,60.55
2018-01-28T10:29:15.536Z,60.27
2018-01-28T10:31:43.843Z,60.10
2018-01-28T10:34:12.503Z,61.37
2018-01-28T10:36:40.800Z,61.71
2018-01-28T10:39:09.104Z,61.18
2018-01-28T10:41:37.567Z,61.42
2018-01-28T10:44:06.495Z,62.31
2018-01-28T10:46:34.807Z,61.71
2018-01-28T10:49:03.163Z,62.16
2018-01-28T10:51:31.481Z,61.64
2018-01-28T10:53:59.807Z,62.83
2018-01-28T10:56:28.991Z,61.77
2018-01-28T10:58:57.338Z,62.05
2018-01-28T11:01:25.680Z,61.59
2018-01-28T11:03:54.031Z,62.76
2018-01-28T11:06:22.556Z,61.90
2018-01-28T11:08:50.899Z,61.27
2018-01-28T11:11:20.359Z,61.50
2018-01-28T11:13:48.687Z,61.68
2018-01-28T11:16:16.999Z,61.17
2018-01-28T11:18:45.884Z,62.16
2018-01-28T11:21:15.075Z,60.99
2018-01-28T11:23:43.779Z,60.74
2018-01-28T11:26:12.250Z,62.83
2018-01-28T11:28:41.467Z,59.94
2018-01-28T11:31:10.202Z,61.40
2018-01-28T11:33:39.299Z,61.51
2018-01-28T11:36:07.622Z,61.89
2018-01-28T11:38:37.440Z,62.98
2018-01-28T11:41:06.001Z,60.96
2018-01-28T11:43:34.511Z,60.82
2018-01-28T11:46:05.421Z,60.14
2018-01-28T11:48:34.677Z,58.79
2018-01-28T11:51:03.008Z,60.03
2018-01-28T11:53:31.350Z,60.19
2018-01-28T11:55:59.756Z,58.95
2018-01-28T11:58:28.449Z,59.48
2018-01-28T12:00:56.770Z,60.68
2018-01-28T12:03:25.201Z,60.91
2018-01-28T12:05:55.052Z,60.00
2018-01-28T12:08:23.365Z,59.53
2018-01-28T12:10:52.030Z,59.27
2018-01-28T12:13:20.859Z,59.05
2018-01-28T12:15:49.167Z,59.27
2018-01-28T12:18:18.042Z,59.00
2018-01-28T12:20:46.572Z,58.65
2018-01-28T12:23:14.892Z,59.16
2018-01-28T12:25:43.731Z,57.42
2018-01-28T12:28:12.227Z,56.48
2018-01-28T12:30:40.527Z,56.99
2018-01-28T12:33:09.177Z,56.61
2018-01-28T12:35:37.764Z,54.09
2018-01-28T12:38:06.079Z,54.36
2018-01-28T12:40:35.036Z,56.60
2018-01-28T12:43:03.352Z,57.56
2018-01-28T12:45:31.657Z,59.55
2018-01-28T12:48:00.721Z,61.34
2018-01-28T12:50:29.029Z,60.75
2018-01-28T12:52:57.343Z,61.08
2018-01-28T12:55:25.748Z,61.62
2018-01-28T12:57:54.702Z,61.49
2018-01-28T13:00:23.011Z,62.72
2018-01-28T13:02:51.390Z,62.65
2018-01-28T13:05:20.257Z,62.96
2018-01-28T13:07:48.567Z,61.84
2018-01-28T13:10:17.935Z,61.36
2018-01-28T13:12:47.539Z,61.18
2018-01-28T13:15:15.904Z,61.82
2018-01-28T13:17:44.339Z,60.08
2018-01-28T13:20:12.655Z,58.86
2018-01-28T13:22:40.963Z,57.47
2018-01-28T13:25:10.122Z,58.91
2018-01-28T13:27:38.433Z,58.40
2018-01-28T13:30:06.564Z,57.66
2018-01-28T13:32:34.904Z,56.71
2018-01-28T13:35:03.215Z,56.40
2018-01-28T13:37:31.976Z,57.87
2018-01-28T13:40:00.332Z,59.62
2018-01-28T13:42:29.455Z,59.21
2018-01-28T13:44:58.408Z,60.74
2018-01-28T13:47:27.276Z,58.83
2018-01-28T13:49:55.601Z,58.80
2018-01-28T13:52:24.369Z,58.96
2018-01-28T13:54:53.526Z,60.86
2018-01-28T13:57:21.827Z,60.96
2018-01-28T13:59:51.932Z,61.26
2018-01-28T14:02:20.348Z,61.18
2018-01-28T14:04:49.442Z,61.67
2018-01-28T14:07:18.543Z,61.67
2018-01-28T14:09:47.661Z,62.36
2018-01-28T14:12:16.000Z,60.89
2018-01-28T14:14:44.323Z,62.13
2018-01-28T14:17:13.332Z,62.26
2018-01-28T14:19:41.814Z,64.33
2018-01-28T14:22:10.609Z,65.25
2018-01-28T14:24:39.119Z,64.05
2018-01-28T14:27:07.623Z,65.01
2018-01-28T14:29:38.017Z,66.18
2018-01-28T14:32:06.397Z,66.55
2018-01-28T14:34:34.815Z,67.17
2018-01-28T14:37:03.478Z,66.74
2018-01-28T14:39:31.876Z,66.29
2018-01-28T14:42:00.355Z,66.74
2018-01-28T14:44:29.465Z,66.42
2018-01-28T14:46:58.465Z,66.62
2018-01-28T14:49:26.835Z,66.89
2018-01-28T14:51:55.203Z,67.23
2018-01-28T14:54:23.512Z,67.16
2018-01-28T14:56:52.594Z,67.27
2018-01-28T14:59:20.960Z,66.88
2018-01-28T15:01:49.268Z,66.89
2018-01-28T15:04:18.549Z,67.40
2018-01-28T15:06:46.855Z,66.92
2018-01-28T15:09:15.353Z,67.33
2018-01-28T15:11:43.765Z,67.51
2018-01-28T15:14:12.859Z,67.86
2018-01-28T15:16:42.381Z,67.14
2018-01-28T15:19:10.694Z,67.82
2018-01-28T15:21:39.059Z,67.62
2018-01-28T15:24:08.561Z,67.35
2018-01-28T15:26:37.539Z,68.20
2018-01-28T15:29:06.598Z,68.91
2018-01-28T15:31:35.635Z,69.02
2018-01-28T15:34:05.406Z,69.25
2018-01-28T15:36:33.728Z,69.57
2018-01-28T15:39:02.148Z,69.21
2018-01-28T15:41:30.459Z,70.31
2018-01-28T15:43:59.049Z,69.69
2018-01-28T15:46:27.447Z,70.18
2018-01-28T15:48:57.291Z,69.69
2018-01-28T15:51:25.624Z,69.69
2018-01-28T15:53:54.511Z,69.87
2018-01-28T15:56:22.822Z,70.34
2018-01-28T15:58:52.313Z,70.27
2018-01-28T16:01:20.712Z,69.91
2018-01-28T16:03:49.012Z,70.97
2018-01-28T16:06:17.801Z,70.77
2018-01-28T16:08:48.154Z,70.61
2018-01-28T16:11:16.768Z,71.28
2018-01-28T16:13:45.079Z,71.16
2018-01-28T16:16:13.712Z,71.44
2018-01-28T16:18:42.775Z,71.28
2018-01-28T16:21:12.552Z,71.13
2018-01-28T16:23:40.900Z,71.01
2018-01-28T16:26:08.584Z,71.34
2018-01-28T16:28:37.337Z,71.27
2018-01-28T16:31:05.683Z,70.81
2018-01-28T16:33:34.060Z,70.80
2018-01-28T16:36:02.439Z,71.30
2018-01-28T16:38:30.915Z,71.14
2018-01-28T16:40:59.976Z,71.26
2018-01-28T16:43:28.805Z,71.57
2018-01-28T16:45:57.159Z,71.50
2018-01-28T16:48:25.776Z,71.94
2018-01-28T16:50:54.126Z,72.28
2018-01-28T16:53:23.463Z,72.21
2018-01-28T16:55:51.824Z,71.73
2018-01-28T16:58:20.171Z,72.43
2018-01-28T17:00:49.559Z,72.30
2018-01-28T17:03:17.962Z,72.48
2018-01-28T17:05:46.310Z,72.41
2018-01-28T17:08:14.667Z,72.05
2018-01-28T17:10:43.827Z,72.83
2018-01-28T17:13:12.677Z,72.60
2018-01-28T17:15:41.646Z,72.64
2018-01-28T17:18:10.013Z,72.58
2018-01-28T17:20:39.644Z,72.67
2018-01-28T17:23:08.103Z,73.00
2018-01-28T17:25:36.449Z,72.92
2018-01-28T17:28:04.832Z,72.97
2018-01-28T17:30:33.032Z,72.64
2018-01-28T17:33:01.508Z,73.06
2018-01-28T17:35:35.607Z,73.19
2018-01-28T17:38:03.908Z,73.41
2018-01-28T17:40:34.458Z,73.49
2018-01-28T17:43:03.071Z,73.66
2018-01-28T17:45:32.063Z,73.49
2018-01-28T17:48:00.373Z,73.35
2018-01-28T17:50:28.730Z,73.59
2018-01-28T17:52:57.150Z,73.32
2018-01-28T17:55:25.873Z,74.01
2018-01-28T17:57:54.446Z,73.91
2018-01-28T18:00:22.835Z,74.17
2018-01-28T18:02:51.140Z,73.95
2018-01-28T18:05:19.475Z,73.89
2018-01-28T18:07:48.627Z,73.81
2018-01-28T18:10:17.445Z,74.07
2018-01-28T18:12:46.002Z,73.97
2018-01-28T18:15:14.621Z,74.55
2018-01-28T18:17:42.980Z,74.43
2018-01-28T18:20:11.283Z,74.45
2018-01-28T18:22:40.408Z,74.53
2018-01-28T18:25:08.707Z,74.31
2018-01-28T18:27:37.012Z,75.02
2018-01-28T18:30:05.388Z,74.41
2018-01-28T18:32:33.695Z,74.78
2018-01-28T18:35:01.819Z,75.27
2018-01-28T18:37:30.634Z,75.67
2018-01-28T18:39:58.995Z,75.90
2018-01-28T18:42:27.357Z,75.97
2018-01-28T18:44:56.047Z,76.39
2018-01-28T18:47:24.351Z,76.45
2018-01-28T18:49:52.779Z,76.89
2018-01-28T18:52:21.155Z,76.84
2018-01-28T18:54:49.505Z,77.57
2018-01-28T18:57:17.857Z,77.22
2018-01-28T18:59:46.215Z,77.26
2018-01-28T19:02:15.157Z,77.63
2018-01-28T19:04:43.283Z,77.62
2018-01-28T19:07:11.519Z,77.87
2018-01-28T19:09:39.882Z,78.29
2018-01-28T19:12:08.306Z,78.25
2018-01-28T19:14:37.235Z,79.19
2018-01-28T19:17:05.589Z,79.78
2018-01-28T19:19:34.275Z,80.27
2018-01-28T19:22:03.104Z,80.75
2018-01-28T19:24:32.737Z,81.35
2018-01-28T19:27:01.040Z,81.95
2018-01-28T19:29:29.440Z,82.31
2018-01-28T19:31:59.243Z,83.21
2018-01-28T19:34:27.614Z,83.97
2018-01-28T19:36:56.245Z,84.46
2018-01-28T19:39:24.792Z,83.96
2018-01-28T19:41:53.454Z,82.99
2018-01-28T19:44:22.962Z,82.51
2018-01-28T19:46:52.095Z,81.42
2018-01-28T19:49:20.491Z,81.27
2018-01-28T19:51:48.821Z,80.96
2018-01-28T19:54:17.115Z,80.90
2018-01-28T19:56:45.510Z,81.81
2018-01-28T19:59:13.819Z,80.40
2018-01-28T20:01:43.202Z,80.55
2018-01-28T20:04:11.959Z,80.29
2018-01-28T20:06:40.730Z,79.84
2018-01-28T20:09:10.711Z,79.81
2018-01-28T20:11:39.680Z,79.64
2018-01-28T20:14:08.747Z,79.39
2018-01-28T20:16:37.056Z,79.21
2018-01-28T20:19:05.830Z,78.94
2018-01-28T20:21:34.306Z,79.45
2018-01-28T20:24:03.055Z,78.15
2018-01-28T20:26:31.906Z,78.62
2018-01-28T20:29:00.449Z,79.33
2018-01-28T20:31:28.807Z,78.98
2018-01-28T20:33:57.238Z,78.20
2018-01-28T20:36:25.600Z,78.62
2018-01-28T20:38:53.963Z,78.24
2018-01-28T20:41:22.608Z,78.10
2018-01-28T20:43:51.649Z,78.14
2018-01-28T20:46:20.111Z,77.82
2018-01-28T20:48:49.099Z,78.39
2018-01-28T20:51:17.962Z,78.71
2018-01-28T20:53:49.155Z,78.45
2018-01-28T20:56:17.533Z,77.67
2018-01-28T20:58:46.639Z,78.47
2018-01-28T21:01:14.939Z,78.09
2018-01-28T21:03:43.485Z,77.58
2018-01-28T21:06:11.966Z,77.45
2018-01-28T21:08:40.330Z,77.85
2018-01-28T21:11:08.747Z,77.85
2018-01-28T21:13:36.858Z,77.52
2018-01-28T21:16:06.014Z,78.07
2018-01-28T21:18:34.394Z,77.64
2018-01-28T21:21:02.753Z,77.74
2018-01-28T21:23:31.883Z,78.06
2018-01-28T21:26:02.089Z,77.37
2018-01-28T21:28:30.798Z,78.39
2018-01-28T21:30:59.150Z,77.38
2018-01-28T21:33:27.512Z,76.93
2018-01-28T21:35:55.914Z,77.59
2018-01-28T21:38:24.275Z,77.70
2018-01-28T21:40:52.638Z,77.35
2018-01-28T21:43:21.111Z,77.51
2018-01-28T21:45:49.526Z,78.29
2018-01-28T21:48:17.920Z,77.98
2018-01-28T21:50:46.658Z,77.96
2018-01-28T21:53:15.567Z,77.70
2018-01-28T21:55:44.714Z,77.47
2018-01-28T21:58:13.912Z,77.40
2018-01-28T22:00:43.052Z,77.56
2018-01-28T22:03:12.320Z,78.04
2018-01-28T22:05:41.123Z,77.79
2018-01-28T22:08:09.998Z,77.73
2018-01-28T22:10:38.718Z,78.36
2018-01-28T22:13:07.196Z,79.00
2018-01-28T22:15:35.910Z,78.92
2018-01-28T22:18:04.215Z,78.94
2018-01-28T22:20:32.506Z,79.62
2018-01-28T22:23:00.915Z,79.77
2018-01-28T22:25:29.856Z,80.12
2018-01-28T22:27:59.614Z,80.55
2018-01-28T22:30:27.988Z,80.89
2018-01-28T22:32:56.329Z,81.49
2018-01-28T22:35:24.810Z,81.59
2018-01-28T22:37:53.211Z,82.08
2018-01-28T22:40:23.006Z,82.77
2018-01-28T22:42:51.335Z,83.08
2018-01-28T22:45:19.647Z,83.61
2018-01-28T22:47:47.853Z,84.74
2018-01-28T22:50:16.550Z,85.76
2018-01-28T22:52:44.751Z,86.30
2018-01-28T22:55:13.047Z,86.53
2018-01-28T22:57:41.848Z,87.25
2018-01-28T23:00:10.898Z,87.64
2018-01-28T23:02:39.237Z,88.16
2018-01-28T23:05:07.548Z,88.48
2018-01-28T23:07:35.971Z,88.34
2018-01-28T23:10:04.327Z,88.78
2018-01-28T23:12:32.626Z,89.00
2018-01-28T23:15:01.014Z,89.21
2018-01-28T23:17:29.312Z,89.54
2018-01-28T23:19:58.659Z,89.73
2018-01-28T23:22:27.049Z,89.80
2018-01-28T23:24:56.272Z,89.95
2018-01-28T23:27:24.798Z,89.92
2018-01-28T23:29:53.834Z,90.11
2018-01-28T23:32:22.131Z,90.22
2018-01-28T23:34:51.011Z,90.29
2018-01-28T23:37:20.001Z,90.32
2018-01-28T23:39:48.299Z,90.34
2018-01-28T23:42:16.612Z,90.70
2018-01-28T23:44:44.984Z,90.84
2018-01-28T23:47:13.279Z,90.96
2018-01-28T23:49:41.600Z,91.18
2018-01-28T23:52:10.273Z,91.21
2018-01-28T23:54:38.571Z,91.09
2018-01-28T23:57:07.235Z,91.37
2018-01-28T23:59:35.561Z,91.88
